Pagrindinis puslapis
METAR-TAF:

METAR-TAF

Oro uostai :

Briuselio oro uostas

Briuselis, Belgija

platuma: 50-54N, ilguma: 004-32E, Aukštis: 55 m

Dabartinis oras

Ataskaita buvo paskelbta 26 minutes, ne 21:50 UTC
Vėjas 7 kt iš Rytų/Pietryčių
Temperatūra 13°C
Drėgmė 54%
Slėgis 1022 hPa
Matomumas 10 km arba daugiau
nėra debesų žemiau 1500 m ir nėra kamuolinių lietaus debesų

METAR: EBBR 202150Z 12007KT CAVOK 13/04 Q1022 NOSIG

Laikas: 00:16 (22:16 UTC)

Prognozė

Ataskaita buvo paskelbta 5 valandos ir 9 minutes, ne 17:07 UTC
Prognozė galioja nuo 20 metu 18 UTC su 21 metu 24 UTC
Vėjas 7 kt iš Rytų
Matomumas 10 km arba daugiau
nėra debesų žemiau 1500 m ir nėra kamuolinių lietaus debesų

TAF: EBBR 201707Z 2018/2124 10007KT CAVOK

Orai ataskaitas ir orų prognozės (METAR, TAF).

turimą stotys yra geltonos ir raudonos taškus žemėlapyje.

Perkelti pele per norėdami pamatyti stoties vardą.

Tada spustelėkite, norėdami matyti oro stebėjimo ir prognozės.

Norėdami pakeisti žemėlapį: spustelėkite ant žalios mygtukų su juodo kryžiaus žemyn,; žalią mygtuką su brūkšneliu, jei norite nutolinti; arba žalių rodyklių gretimoms žemėlapius.


METAR-TAF: